WIHHWAAA

Guest
Details From WIHH - Jakarta Halim Perdanakusuma Intl
To WAAA - Ujung Pandang Hasanuddin
Flight Number -
Tags Generated
Created
Modified
Stats Distance 761 nm / 1,409 km
Max Altitude 0 ft / 0 m
Waypoints 3
Social Downloads 2
Likes 0
Share VATSIM

Download

Looking for another format? Having issues loading an existing format? Contact us
Advertisement - Login to hide

Notes

Generated

Route

WIHH MKS WAAA

ID Type Via Altitude Latitude Longitude Leg Dist Tot Dist Heading (true) Name
O WIHH APT - 0 ft / 0 m -6.27223˚ 106.87877˚ - 0 nm - -
MKS VOR - 0 ft / 0 m -5.03781˚ 119.52619˚ 759 nm 759 nm 85° / 84° MAKASSAR VOR-DME
O WAAA APT - 0 ft / 0 m -5.05429˚ 119.54548˚ 1 nm 760 nm 131° / 131° -

Altitude Profile

Advertisement - Login to hide

Weather


0- 5 10 15 20 25 30 35+ Temperature / ° C

Clouds and Precipitation
Forecast for 2017-12-13 00:00 UTC. Updated an hour ago

Ground ~20,000 ft ~40,000 ft Winds

WIHH

Details ICAO WIHH (HLP)
Name Jakarta Halim Perdanakusuma Intl
Region Indonesia
Timezone Asia/Jakarta (UTC+7.0)
Stats Elevation 84 ft / 26 m (AMSL)
Location -6.266608° 106.891117°
Runways 1
Magnetic Variation 0.650° E

METAR

Not found

TAF

TAF WIHH 121100Z 1212/1312 24005KT 4000 -RA FEW018CB SCT020 BECMG 1215/1217 6000 FEW022 BECMG 1302/1304 26008KT 8000 SCT018

Decode

Departure Runways

ID Width Length Bearing (true) Bearing (mag) Surface Threshold Offset Overrun Length
06 148 ft / 45 m 9,855 ft / 3,004 m 65.38° 64.73° Asphalt 0 ft / 0 m 0 ft / 0 m
24 148 ft / 45 m 9,855 ft / 3,004 m 245.38° 244.73° Asphalt 650 ft / 198 m 0 ft / 0 m

WAAA

Details ICAO WAAA (UPG)
Name Ujung Pandang Hasanuddin
Region Indonesia
Timezone Asia/Makassar (UTC+8.0)
Stats Elevation 47 ft / 14 m (AMSL)
Location -5.061630° 119.554043°
Runways 1
Magnetic Variation 0.852° E

METAR

WAAA 122000Z 12001KT 8000 FEW019 25/25 Q1009 RETS NOSIG

Decode

TAF

TAF TAF WAAA 121100Z 1212/1318 09004KT 6000 -RA SCT019 BKN100 BECMG 1215/1217 00000KT 8000 NSW BECMG 1301/1303 30008KT 9999 FEW020 BECMG 1311/1313 09004KT 8000

Decode

Destination Runways

ID Width Length Bearing (true) Bearing (mag) Surface Threshold Offset Overrun Length
13 148 ft / 45 m 8,214 ft / 2,504 m 130.71° 129.86° Asphalt 0 ft / 0 m 200 ft / 61 m
31 148 ft / 45 m 8,214 ft / 2,504 m 310.71° 309.86° Asphalt 0 ft / 0 m 200 ft / 61 m

Approach Navaids

Runway Type Ident Frequency Range Bearing (true) Bearing (mag) Slope Elevation
13 Localiser IUPG 111.30 MHz 18 nm / 33 km 130.67° 129.82° - 36 ft / 11 m (AMSL)
13 Glidescope IUPG 111.30 MHz 10 nm / 19 km 130.71° 129.86° 2.90° 44 ft / 13 m (AMSL)
13 DME IUPG 111.30 MHz 18 nm / 33 km - - - 36 ft / 11 m (AMSL)
31 Localiser IMKS 111.30 MHz 18 nm / 33 km 310.71° 309.86° - 44 ft / 13 m (AMSL)
31 Glidescope IMKS 111.30 MHz 10 nm / 19 km 310.71° 309.86° 3.00° 36 ft / 11 m (AMSL)
31 DME IMKS 111.30 MHz 18 nm / 33 km - - - 36 ft / 11 m (AMSL)

Popular Alternatives